createdAt,value
2022-10-04T00:00:05.326Z,531.4
2022-10-04T00:01:07.531Z,530.8
2022-10-04T00:02:10.363Z,531.5
2022-10-04T00:03:13.351Z,531
2022-10-04T00:04:15.885Z,531
2022-10-04T00:05:18.181Z,531.1
2022-10-04T00:06:20.655Z,530.9
2022-10-04T00:07:22.584Z,530.7
2022-10-04T00:08:24.508Z,530.8
2022-10-04T00:09:26.692Z,530.9
2022-10-04T00:10:29.173Z,531.1
2022-10-04T00:11:31.381Z,531.3
2022-10-04T00:12:33.857Z,531.6
2022-10-04T00:13:35.776Z,531.3
2022-10-04T00:14:37.980Z,531.8
2022-10-04T00:15:40.471Z,532.2
2022-10-04T00:16:42.762Z,532.5
2022-10-04T00:17:45.272Z,532.3
2022-10-04T00:18:47.466Z,532.5
2022-10-04T00:19:49.688Z,532.6
2022-10-04T00:20:52.495Z,532.5
2022-10-04T00:21:54.685Z,532.6
2022-10-04T00:22:56.914Z,532.9
2022-10-04T00:23:58.822Z,533
2022-10-04T00:25:01.019Z,532.7
2022-10-04T00:26:03.509Z,533
2022-10-04T00:27:05.699Z,533
2022-10-04T00:28:08.340Z,533.1
2022-10-04T00:29:10.568Z,533.3
2022-10-04T00:30:13.038Z,533.3
2022-10-04T00:31:15.118Z,533.8
2022-10-04T00:32:17.335Z,533.3
2022-10-04T00:33:19.827Z,533.2
2022-10-04T00:34:22.007Z,533.1
2022-10-04T00:35:24.234Z,532.9
2022-10-04T00:36:26.577Z,532.9
2022-10-04T00:37:28.793Z,532.8
2022-10-04T00:38:31.282Z,532.9
2022-10-04T00:39:33.466Z,533
2022-10-04T00:40:35.658Z,533.3
2022-10-04T00:41:38.139Z,533.3
2022-10-04T00:42:40.331Z,533.2
2022-10-04T00:43:42.252Z,533
2022-10-04T00:44:44.717Z,532.8
2022-10-04T00:45:47.326Z,532.9
2022-10-04T00:46:49.857Z,533.4
2022-10-04T00:47:52.332Z,533.5
2022-10-04T00:48:54.824Z,533.3
2022-10-04T00:49:57.024Z,533.2
2022-10-04T00:50:59.533Z,533.2
2022-10-04T00:52:01.490Z,533.5
2022-10-04T00:53:03.949Z,533.7
2022-10-04T00:54:06.461Z,533.6
2022-10-04T00:55:08.959Z,533.7
2022-10-04T00:56:11.146Z,534.1
2022-10-04T00:57:13.056Z,534.2
2022-10-04T00:58:15.257Z,534.1
2022-10-04T00:59:17.452Z,533.8
2022-10-04T01:00:19.704Z,533.9
2022-10-04T01:01:22.809Z,534.2
2022-10-04T01:02:25.809Z,534.4
2022-10-04T01:03:28.344Z,533.8
2022-10-04T01:04:30.836Z,533.8
2022-10-04T01:05:33.031Z,534.3
2022-10-04T01:06:35.554Z,534.2
2022-10-04T01:07:37.768Z,534.5
2022-10-04T01:08:40.232Z,534.9
2022-10-04T01:09:42.451Z,534.9
2022-10-04T01:10:44.934Z,535
2022-10-04T01:11:47.129Z,535.7
2022-10-04T01:12:49.322Z,534.9
2022-10-04T01:13:51.498Z,535
2022-10-04T01:14:53.982Z,535.6
2022-10-04T01:15:56.599Z,535.5
2022-10-04T01:16:58.866Z,535.6
2022-10-04T01:19:05.762Z,536
2022-10-04T01:20:08.247Z,535.7
2022-10-04T01:21:10.726Z,535.6
2022-10-04T01:22:12.685Z,535.4
2022-10-04T01:23:15.206Z,535.6
2022-10-04T01:24:17.665Z,535.4
2022-10-04T01:25:20.151Z,535.6
2022-10-04T01:26:22.103Z,535.4
2022-10-04T01:27:24.295Z,535.3
2022-10-04T01:28:26.619Z,535.5
2022-10-04T01:29:28.870Z,535.4
2022-10-04T01:30:31.338Z,535.6
2022-10-04T01:31:33.803Z,535.9
2022-10-04T01:32:36.351Z,535.9
2022-10-04T01:33:38.376Z,535.7
2022-10-04T01:34:40.575Z,535.6
2022-10-04T01:35:43.060Z,535.9
2022-10-04T01:36:45.533Z,535.9
2022-10-04T01:37:48.057Z,535.7
2022-10-04T01:38:50.552Z,535.8
2022-10-04T01:39:52.754Z,535.8
2022-10-04T01:40:54.819Z,536
2022-10-04T01:41:57.294Z,536.1
2022-10-04T01:42:59.761Z,536.1
2022-10-04T01:44:01.968Z,536.4
2022-10-04T01:45:04.162Z,536.3
2022-10-04T01:46:06.727Z,536.3
2022-10-04T01:47:09.208Z,536.7
2022-10-04T01:48:11.703Z,536.5
2022-10-04T01:49:13.900Z,536.8
2022-10-04T01:50:18.020Z,536.7
2022-10-04T01:51:20.213Z,536.9
2022-10-04T01:52:22.691Z,536.9
2022-10-04T01:53:24.909Z,537.1
2022-10-04T01:54:27.500Z,537.6
2022-10-04T01:55:29.428Z,538
2022-10-04T01:56:31.915Z,537.8
2022-10-04T01:57:34.386Z,538.3
2022-10-04T01:58:36.586Z,538.4
2022-10-04T01:59:38.774Z,538.2
2022-10-04T02:00:41.249Z,538.7
2022-10-04T02:01:45.635Z,538.6
2022-10-04T02:02:48.290Z,538.8
2022-10-04T02:03:50.464Z,538.9
2022-10-04T02:04:52.890Z,539
2022-10-04T02:05:54.838Z,539.2
2022-10-04T02:06:57.081Z,539.2
2022-10-04T02:07:59.299Z,539.4
2022-10-04T02:09:01.807Z,539.2
2022-10-04T02:10:04.297Z,539
2022-10-04T02:11:06.491Z,539.3
2022-10-04T02:12:08.985Z,538.9
2022-10-04T02:13:11.169Z,539.1
2022-10-04T02:14:13.681Z,539
2022-10-04T02:15:16.149Z,539.3
2022-10-04T02:16:18.359Z,539.1
2022-10-04T02:17:20.881Z,539.2
2022-10-04T02:18:23.402Z,539.2
2022-10-04T02:19:25.870Z,539.4
2022-10-04T02:20:28.116Z,539.4
2022-10-04T02:21:30.307Z,539.2
2022-10-04T02:22:32.803Z,539.6
2022-10-04T02:23:34.997Z,540
2022-10-04T02:24:37.223Z,540.6
2022-10-04T02:25:39.451Z,540.9
2022-10-04T02:26:41.655Z,540.7
2022-10-04T02:27:44.149Z,541.3
2022-10-04T02:28:46.610Z,540.7
2022-10-04T02:29:49.084Z,540.8
2022-10-04T02:30:51.952Z,540.9
2022-10-04T02:31:54.436Z,540.8
2022-10-04T02:32:56.630Z,540.2
2022-10-04T02:33:58.814Z,540.1
2022-10-04T02:35:00.719Z,539.7
2022-10-04T02:36:02.911Z,539.2
2022-10-04T02:37:05.387Z,538.9
2022-10-04T02:38:07.870Z,538.8
2022-10-04T02:39:10.055Z,538.6
2022-10-04T02:40:12.542Z,538.7
2022-10-04T02:41:14.797Z,538.7
2022-10-04T02:42:16.985Z,538.7
2022-10-04T02:43:19.186Z,538.9
2022-10-04T02:44:21.671Z,539.2
2022-10-04T02:45:24.138Z,538.8
2022-10-04T02:46:26.820Z,539.1
2022-10-04T02:47:29.036Z,538.6
2022-10-04T02:48:31.212Z,538.9
2022-10-04T02:49:33.684Z,539
2022-10-04T02:50:35.885Z,539.4
2022-10-04T02:51:38.092Z,539.4
2022-10-04T02:52:40.299Z,539.3
2022-10-04T02:53:42.780Z,539.3
2022-10-04T02:54:45.246Z,539.4
2022-10-04T02:55:47.758Z,539.6
2022-10-04T02:56:50.254Z,540.1
2022-10-04T02:57:52.731Z,540
2022-10-04T02:58:55.212Z,540.2
2022-10-04T02:59:56.851Z,539.7
2022-10-04T03:00:59.649Z,539.8
2022-10-04T03:02:02.642Z,540.1
2022-10-04T03:03:04.866Z,540.2
2022-10-04T03:04:07.059Z,540.5
2022-10-04T03:05:09.251Z,540.8
2022-10-04T03:06:11.727Z,540.8
2022-10-04T03:07:14.192Z,540.2
2022-10-04T03:08:16.662Z,540.2
2022-10-04T03:09:19.156Z,540.4
2022-10-04T03:10:21.769Z,539.7
2022-10-04T03:11:24.018Z,539.9
2022-10-04T03:12:26.525Z,539.8
2022-10-04T03:13:28.990Z,539.9
2022-10-04T03:14:31.545Z,539.4
2022-10-04T03:15:34.018Z,539.5
2022-10-04T03:16:36.730Z,539.6
2022-10-04T03:17:38.671Z,539.8
2022-10-04T03:18:40.869Z,540.1
2022-10-04T03:19:43.339Z,540
2022-10-04T03:20:45.820Z,539.5
2022-10-04T03:21:48.288Z,540.2
2022-10-04T03:22:50.759Z,540.1
2022-10-04T03:23:52.688Z,540.9
2022-10-04T03:24:54.900Z,540.9
2022-10-04T03:25:57.386Z,540.6
2022-10-04T03:26:59.624Z,541.3
2022-10-04T03:28:02.681Z,541.4
2022-10-04T03:29:05.202Z,541.3
2022-10-04T03:30:07.692Z,541.1
2022-10-04T03:31:10.677Z,541.4
2022-10-04T03:32:12.903Z,541.5
2022-10-04T03:33:15.375Z,541.4
2022-10-04T03:34:17.584Z,541.4
2022-10-04T03:35:19.788Z,541.5
2022-10-04T03:36:22.260Z,541.2
2022-10-04T03:37:24.732Z,541.6
2022-10-04T03:38:26.641Z,541.1
2022-10-04T03:39:29.106Z,540.8
2022-10-04T03:40:31.599Z,541.2
2022-10-04T03:41:33.797Z,540.7
2022-10-04T03:42:36.044Z,540.8
2022-10-04T03:43:38.543Z,541.4
2022-10-04T03:44:40.732Z,541.2
2022-10-04T03:45:43.311Z,541.2
2022-10-04T03:46:45.530Z,540.9
2022-10-04T03:47:47.994Z,540.9
2022-10-04T03:48:50.472Z,541.1
2022-10-04T03:49:52.650Z,541.2
2022-10-04T03:50:55.123Z,541.1
2022-10-04T03:51:57.299Z,540.5
2022-10-04T03:52:59.781Z,540.6
2022-10-04T03:54:02.246Z,540.5
2022-10-04T03:55:04.525Z,540.4
2022-10-04T03:56:07.120Z,540.7
2022-10-04T03:57:09.058Z,540.1
2022-10-04T03:58:11.566Z,539.8
2022-10-04T03:59:14.098Z,539.7
2022-10-04T04:00:16.289Z,539.5
2022-10-04T04:01:19.047Z,539.5
2022-10-04T04:02:21.809Z,539.4
2022-10-04T04:03:24.101Z,539.9
2022-10-04T04:04:26.572Z,539.5
2022-10-04T04:05:28.762Z,539.8
2022-10-04T04:06:31.228Z,539.9
2022-10-04T04:07:33.695Z,540.2
2022-10-04T04:08:35.871Z,540.1
2022-10-04T04:09:37.788Z,539.7
2022-10-04T04:10:40.267Z,540.3
2022-10-04T04:11:44.018Z,540.2
2022-10-04T04:12:46.607Z,540.3
2022-10-04T04:13:49.118Z,540.2
2022-10-04T04:14:51.372Z,540.3
2022-10-04T04:15:53.833Z,540.5
2022-10-04T04:16:56.339Z,540.4
2022-10-04T04:17:58.538Z,540.9
2022-10-04T04:19:01.021Z,541.1
2022-10-04T04:21:08.214Z,541.1
2022-10-04T04:22:10.691Z,541.3
2022-10-04T04:23:12.632Z,540.9
2022-10-04T04:24:14.564Z,541.4
2022-10-04T04:25:17.037Z,541.5
2022-10-04T04:26:19.503Z,541
2022-10-04T04:28:29.003Z,541.1
2022-10-04T04:29:31.560Z,540.5
2022-10-04T04:30:34.073Z,540.5
2022-10-04T04:31:36.902Z,540.5
2022-10-04T04:32:39.172Z,540.5
2022-10-04T04:33:41.344Z,540.2
2022-10-04T04:34:43.825Z,540.5
2022-10-04T04:35:46.314Z,540.2
2022-10-04T04:36:48.491Z,540.2
2022-10-04T04:37:50.690Z,540.2
2022-10-04T04:38:52.887Z,540.4
2022-10-04T04:39:54.803Z,540.5
2022-10-04T04:40:57.009Z,540
2022-10-04T04:41:58.923Z,540.1
2022-10-04T04:43:01.410Z,540
2022-10-04T04:44:03.604Z,540.3
2022-10-04T04:45:06.118Z,540
2022-10-04T04:48:18.353Z,540.6
2022-10-04T04:49:20.551Z,539.9
2022-10-04T04:50:22.745Z,540.5
2022-10-04T04:51:24.942Z,540.4
2022-10-04T04:52:27.411Z,540.8
2022-10-04T04:53:29.911Z,540.7
2022-10-04T04:54:32.116Z,541.5
2022-10-04T04:56:39.698Z,541.2
2022-10-04T04:57:42.185Z,541
2022-10-04T04:58:44.677Z,540.7
2022-10-04T04:59:47.158Z,540.7
2022-10-04T05:00:49.557Z,540.8
2022-10-04T05:01:51.939Z,540.6
2022-10-04T05:03:58.897Z,540.3
2022-10-04T05:05:01.360Z,540.5
2022-10-04T05:06:03.846Z,540.8
2022-10-04T05:07:06.043Z,540.5
2022-10-04T05:08:08.244Z,540.7
2022-10-04T05:09:10.420Z,540.3
2022-10-04T05:10:12.916Z,540.5
2022-10-04T05:11:15.109Z,540.4
2022-10-04T05:12:17.578Z,540.7
2022-10-04T05:13:19.773Z,540.5
2022-10-04T05:14:21.967Z,540.6
2022-10-04T05:15:23.885Z,540.7
2022-10-04T05:16:26.513Z,540.4
2022-10-04T05:17:29.004Z,540.4
2022-10-04T05:18:31.486Z,539.7
2022-10-04T05:19:34.001Z,539.6
2022-10-04T05:20:36.214Z,539.4
2022-10-04T05:22:43.674Z,539.6
2022-10-04T05:23:45.866Z,539.8
2022-10-04T05:24:48.078Z,539.9
2022-10-04T05:25:50.285Z,540.2
2022-10-04T05:26:51.925Z,539.8
2022-10-04T05:27:54.628Z,540.4
2022-10-04T05:28:56.851Z,539.7
2022-10-04T05:29:59.102Z,539.7
2022-10-04T05:31:00.752Z,539.7
2022-10-04T05:32:03.520Z,540.2
2022-10-04T05:33:06.070Z,540.2
2022-10-04T05:34:08.242Z,540.2
2022-10-04T05:35:10.756Z,540.4
2022-10-04T05:36:12.674Z,540.7
2022-10-04T05:37:15.174Z,540.1
2022-10-04T05:38:17.704Z,540
2022-10-04T05:39:19.932Z,539.9
2022-10-04T05:40:22.419Z,539.8
2022-10-04T05:41:24.645Z,540.3
2022-10-04T05:42:27.124Z,540.3
2022-10-04T05:43:29.341Z,540.7
2022-10-04T05:44:31.549Z,541.1
2022-10-04T05:45:34.311Z,541.2
2022-10-04T05:47:43.328Z,541.8
2022-10-04T05:48:45.818Z,541.7
2022-10-04T05:49:48.014Z,541.7
2022-10-04T05:50:50.538Z,541.7
2022-10-04T05:51:52.736Z,541.9
2022-10-04T05:52:54.932Z,541.5
2022-10-04T05:53:57.132Z,541.9
2022-10-04T05:54:59.599Z,541.4
2022-10-04T05:56:01.806Z,541.2
2022-10-04T05:57:04.001Z,540.9
2022-10-04T05:58:06.483Z,540.7
2022-10-04T05:59:08.414Z,540.5
2022-10-04T06:00:11.038Z,540.1
2022-10-04T06:01:13.931Z,540.3
2022-10-04T06:02:16.195Z,540.7
2022-10-04T06:03:18.762Z,540.5
2022-10-04T06:04:20.974Z,540.9
2022-10-04T06:06:28.487Z,540.6
2022-10-04T06:07:30.959Z,539.9
2022-10-04T06:08:32.873Z,540.3
2022-10-04T06:09:34.791Z,540.8
2022-10-04T06:10:37.257Z,540.5
2022-10-04T06:11:39.205Z,540.4
2022-10-04T06:13:46.393Z,539.4
2022-10-04T06:14:48.585Z,539.6
2022-10-04T06:15:50.224Z,539.6
2022-10-04T06:16:53.138Z,540.1
2022-10-04T06:17:55.105Z,540
2022-10-04T06:18:57.356Z,540.4
2022-10-04T06:19:59.834Z,540.5
2022-10-04T06:21:02.300Z,541
2022-10-04T06:22:04.926Z,541.4
2022-10-04T06:23:07.395Z,540.9
2022-10-04T06:24:09.884Z,540.6
2022-10-04T06:25:12.356Z,540
2022-10-04T06:26:14.558Z,539.8
2022-10-04T06:27:17.025Z,539.3
2022-10-04T06:28:19.910Z,538.8
2022-10-04T06:29:21.882Z,538.8
2022-10-04T06:30:23.950Z,538.5
2022-10-04T06:31:26.219Z,538.7
2022-10-04T06:32:28.725Z,538.7
2022-10-04T06:33:30.921Z,538.8
2022-10-04T06:34:33.480Z,538.9
2022-10-04T06:35:35.960Z,538.7
2022-10-04T06:36:38.436Z,538.8
2022-10-04T06:37:40.653Z,538.8
2022-10-04T06:38:43.129Z,539
2022-10-04T06:39:45.330Z,539.1
2022-10-04T06:40:47.820Z,539.5
2022-10-04T06:41:50.302Z,539.5
2022-10-04T06:42:52.512Z,540.1
2022-10-04T06:43:54.713Z,539.9
2022-10-04T06:44:56.645Z,539.7
2022-10-04T06:45:58.869Z,540
2022-10-04T06:47:01.363Z,539.8
2022-10-04T06:48:03.863Z,540.3
2022-10-04T06:49:06.039Z,540
2022-10-04T06:50:08.576Z,540.2
2022-10-04T06:51:10.478Z,540
2022-10-04T06:53:18.026Z,540.1
2022-10-04T06:54:20.506Z,540
2022-10-04T06:55:22.732Z,540.5
2022-10-04T06:56:24.925Z,540.3
2022-10-04T06:57:27.149Z,540.1
2022-10-04T06:58:29.357Z,540.4
2022-10-04T06:59:31.836Z,539.8
2022-10-04T07:00:34.074Z,539.9
2022-10-04T07:01:36.123Z,539.4
2022-10-04T07:02:38.406Z,539.8
2022-10-04T07:03:55.320Z,539.9
2022-10-04T07:06:02.843Z,540.1
2022-10-04T07:07:05.052Z,540.5
2022-10-04T07:08:07.675Z,540.6
2022-10-04T07:09:09.642Z,540.8
2022-10-04T07:10:12.106Z,541.1
2022-10-04T07:11:14.628Z,541.2
2022-10-04T07:12:17.143Z,540.6
2022-10-04T07:13:19.541Z,540.9
2022-10-04T07:14:21.749Z,541.1
2022-10-04T07:15:24.231Z,540.9
2022-10-04T07:16:26.543Z,540.7
2022-10-04T07:17:28.745Z,540.5
2022-10-04T07:18:31.225Z,540.4
2022-10-04T07:19:33.434Z,540.2
2022-10-04T07:20:35.974Z,540.2
2022-10-04T07:21:38.490Z,539.6
2022-10-04T07:22:40.694Z,539.8
2022-10-04T07:23:43.183Z,539.4
2022-10-04T07:24:45.189Z,539.1
2022-10-04T07:25:47.678Z,538.8
2022-10-04T07:26:50.185Z,538.5
2022-10-04T07:27:52.958Z,538.4
2022-10-04T07:28:55.470Z,538.7
2022-10-04T07:29:57.672Z,538.4
2022-10-04T07:30:59.923Z,538.4
2022-10-04T07:32:02.164Z,538.6
2022-10-04T07:33:04.643Z,538.2
2022-10-04T07:34:06.289Z,538.1
2022-10-04T07:35:08.844Z,538.3
2022-10-04T07:36:11.318Z,537.9
2022-10-04T07:37:13.994Z,538.4
2022-10-04T07:38:15.914Z,538.7
2022-10-04T07:39:18.409Z,538.2
2022-10-04T07:40:20.941Z,538.2
2022-10-04T07:41:23.423Z,537.7
2022-10-04T07:42:25.621Z,537.8
2022-10-04T07:43:27.843Z,538
2022-10-04T07:44:30.048Z,537.8
2022-10-04T07:45:31.997Z,538.2
2022-10-04T07:46:34.185Z,538.3
2022-10-04T07:47:36.408Z,538.3
2022-10-04T07:48:38.885Z,538.4
2022-10-04T07:49:40.828Z,538.5
2022-10-04T07:50:43.346Z,538.7
2022-10-04T07:51:47.433Z,538.8
2022-10-04T07:52:49.958Z,538.1
2022-10-04T07:53:52.432Z,538.4
2022-10-04T07:54:54.622Z,537.8
2022-10-04T07:55:56.611Z,538
2022-10-04T07:56:59.081Z,537.9
2022-10-04T07:58:01.604Z,537.7
2022-10-04T07:59:03.548Z,537.5
2022-10-04T08:00:05.744Z,537.7
2022-10-04T08:01:07.959Z,537.2
2022-10-04T08:02:11.034Z,537.7
2022-10-04T08:03:13.391Z,537.6
2022-10-04T08:04:15.087Z,537.2
2022-10-04T08:05:17.569Z,537
2022-10-04T08:06:20.081Z,536.9
2022-10-04T08:07:22.569Z,536.7
2022-10-04T08:08:25.099Z,536.6
2022-10-04T08:09:27.296Z,536.7
2022-10-04T08:10:29.214Z,537
2022-10-04T08:11:31.175Z,537
2022-10-04T08:12:33.649Z,537
2022-10-04T08:13:35.871Z,537.1
2022-10-04T08:14:37.772Z,537.2
2022-10-04T08:15:40.368Z,537.2
2022-10-04T08:16:44.881Z,537.1
2022-10-04T08:17:47.573Z,537.2
2022-10-04T08:18:49.779Z,536.8
2022-10-04T08:19:52.001Z,536.9
2022-10-04T08:20:54.221Z,537.2
2022-10-04T08:21:56.453Z,537.4
2022-10-04T08:22:58.372Z,537.1
2022-10-04T08:24:00.898Z,537
2022-10-04T08:25:03.389Z,537.1
2022-10-04T08:26:05.602Z,537.2
2022-10-04T08:27:08.130Z,537.2
2022-10-04T08:28:10.942Z,537
2022-10-04T08:29:13.158Z,536.7
2022-10-04T08:30:15.633Z,537
2022-10-04T08:31:18.385Z,536.9
2022-10-04T08:32:20.635Z,536.8
2022-10-04T08:33:22.569Z,536.7
2022-10-04T08:34:25.044Z,536.8
2022-10-04T08:35:27.523Z,536.9
2022-10-04T08:36:29.727Z,536.7
2022-10-04T08:37:32.318Z,537.3
2022-10-04T08:38:34.728Z,536.9
2022-10-04T08:39:37.548Z,537.2
2022-10-04T08:40:40.267Z,537.4
2022-10-04T08:41:42.939Z,537.3
2022-10-04T08:42:45.176Z,537.7
2022-10-04T08:43:47.099Z,537.5
2022-10-04T08:44:49.580Z,537.6
2022-10-04T08:45:52.295Z,537.5
2022-10-04T08:46:54.729Z,537.7
2022-10-04T08:47:57.261Z,537.2
2022-10-04T08:48:58.914Z,537.5
2022-10-04T08:50:01.122Z,537.4
2022-10-04T08:51:03.597Z,537.6
2022-10-04T08:52:05.512Z,537.4
2022-10-04T08:54:12.740Z,537.8
2022-10-04T08:55:15.250Z,537.2
2022-10-04T08:56:17.448Z,537.4
2022-10-04T08:57:19.658Z,537.3
2022-10-04T08:58:21.900Z,537.6
2022-10-04T08:59:24.087Z,537.6
2022-10-04T09:00:26.302Z,537.4
2022-10-04T09:01:28.789Z,537.3
2022-10-04T09:02:31.650Z,537.6
2022-10-04T09:03:34.151Z,537.7
2022-10-04T09:04:36.625Z,537.7
2022-10-04T09:05:38.876Z,537.9
2022-10-04T09:06:42.426Z,538.2
2022-10-04T09:07:44.588Z,537.8
2022-10-04T09:08:47.075Z,537.7
2022-10-04T09:09:49.451Z,537.9
2022-10-04T09:10:52.042Z,538.1
2022-10-04T09:11:54.518Z,537.7
2022-10-04T09:12:56.723Z,538
2022-10-04T09:13:59.116Z,537.9
2022-10-04T09:15:01.325Z,538
2022-10-04T09:16:03.213Z,538.1
2022-10-04T09:17:05.711Z,537.9
2022-10-04T09:18:07.633Z,538.2
2022-10-04T09:19:10.111Z,538
2022-10-04T09:21:17.299Z,537.9
2022-10-04T09:22:19.778Z,537.8
2022-10-04T09:23:21.409Z,537.8
2022-10-04T09:24:23.874Z,537.9
2022-10-04T09:25:26.132Z,537.9
2022-10-04T09:26:28.099Z,537.8
2022-10-04T09:28:36.114Z,537.7
2022-10-04T09:29:38.365Z,538.2
2022-10-04T09:30:40.911Z,538.3
2022-10-04T09:31:43.488Z,538.7
2022-10-04T09:32:45.964Z,539
2022-10-04T09:33:48.184Z,539.2
2022-10-04T09:34:50.716Z,538.7
2022-10-04T09:35:53.237Z,538.7
2022-10-04T09:36:55.184Z,538.5
2022-10-04T09:37:57.708Z,539.1
2022-10-04T09:40:04.644Z,539.1
2022-10-04T09:41:06.618Z,538.9
2022-10-04T09:42:09.146Z,539
2022-10-04T09:43:11.062Z,538.9
2022-10-04T09:44:13.537Z,539.1
2022-10-04T09:45:16.169Z,538.5
2022-10-04T09:46:18.961Z,538.2
2022-10-04T09:47:21.478Z,538.9
2022-10-04T09:48:23.960Z,538.7
2022-10-04T09:49:25.882Z,538.7
2022-10-04T09:50:28.506Z,539.1
2022-10-04T09:51:30.709Z,538.9
2022-10-04T09:52:32.914Z,538.7
2022-10-04T09:53:34.851Z,538.6
2022-10-04T09:55:43.063Z,538.2
2022-10-04T09:56:47.162Z,538.3
2022-10-04T09:57:49.765Z,538
2022-10-04T09:58:52.253Z,538.1
2022-10-04T09:59:54.440Z,538.4
2022-10-04T10:00:56.704Z,538.1
2022-10-04T10:01:59.623Z,538.3
2022-10-04T10:03:02.487Z,538.6
2022-10-04T10:04:05.019Z,538.6
2022-10-04T10:05:07.243Z,538.3
2022-10-04T10:06:09.435Z,538.4
2022-10-04T10:07:11.345Z,538.8
2022-10-04T10:08:13.528Z,538.7
2022-10-04T10:09:15.713Z,538.5
2022-10-04T10:10:18.191Z,538.2
2022-10-04T10:11:20.168Z,538.3
2022-10-04T10:12:22.371Z,538.4
2022-10-04T10:13:29.993Z,538.5
2022-10-04T10:14:33.144Z,538.6
2022-10-04T10:15:35.785Z,539
2022-10-04T10:16:38.310Z,539.1
2022-10-04T10:17:40.824Z,539
2022-10-04T10:18:43.038Z,538.8
2022-10-04T10:19:44.944Z,539
2022-10-04T10:20:47.432Z,539.2
2022-10-04T10:21:49.630Z,538.8
2022-10-04T10:22:52.108Z,539.4
2022-10-04T10:23:54.583Z,539.2
2022-10-04T10:26:02.127Z,538.6
2022-10-04T10:27:04.045Z,538.8
2022-10-04T10:28:06.883Z,539
2022-10-04T10:29:09.666Z,538.2
2022-10-04T10:30:12.300Z,538
2022-10-04T10:31:14.973Z,538.2
2022-10-04T10:32:17.229Z,538
2022-10-04T10:33:19.709Z,538.2
2022-10-04T10:34:21.638Z,538.1
2022-10-04T10:35:23.559Z,538
2022-10-04T10:36:25.466Z,537.8
2022-10-04T10:37:27.663Z,537.5
2022-10-04T10:38:30.162Z,538.1
2022-10-04T10:39:32.632Z,537.7
2022-10-04T10:40:34.832Z,537.3
2022-10-04T10:41:36.755Z,537.8
2022-10-04T10:42:39.235Z,537.6
2022-10-04T10:43:41.840Z,537.6
2022-10-04T10:44:44.081Z,537.7
2022-10-04T10:45:46.554Z,537.6
2022-10-04T10:46:50.766Z,537.6
2022-10-04T10:47:53.354Z,537.9
2022-10-04T10:48:55.850Z,537.6
2022-10-04T10:49:58.312Z,537.8
2022-10-04T10:51:00.309Z,537.8
2022-10-04T10:52:02.796Z,537.7
2022-10-04T10:53:04.702Z,537
2022-10-04T10:54:06.893Z,536.7
2022-10-04T10:55:08.814Z,536.6
2022-10-04T10:56:11.008Z,536.7
2022-10-04T10:57:13.222Z,536
2022-10-04T10:58:15.693Z,536.4
2022-10-04T10:59:17.659Z,536.4
2022-10-04T11:00:20.169Z,536.7
2022-10-04T11:01:22.458Z,536.5
2022-10-04T11:04:34.435Z,537.1
2022-10-04T11:05:36.673Z,536.7
2022-10-04T11:06:38.869Z,536.8
2022-10-04T11:07:40.788Z,537.3
2022-10-04T11:08:42.727Z,537
2022-10-04T11:09:45.208Z,537.4
2022-10-04T11:11:52.398Z,537.6
2022-10-04T11:12:54.876Z,537.7
2022-10-04T11:13:57.088Z,538.3
2022-10-04T11:14:59.317Z,538.2
2022-10-04T11:16:01.959Z,538.1
2022-10-04T11:17:04.192Z,538.5
2022-10-04T11:18:06.669Z,538.3
2022-10-04T11:19:09.156Z,538.2
2022-10-04T11:20:11.487Z,538.6
2022-10-04T11:21:13.965Z,538.7
2022-10-04T11:22:16.164Z,538.5
2022-10-04T11:23:18.357Z,539
2022-10-04T11:24:20.558Z,538.4
2022-10-04T11:25:23.032Z,538.6
2022-10-04T11:26:25.240Z,539
2022-10-04T11:27:27.711Z,538.7
2022-10-04T11:28:30.729Z,539.2
2022-10-04T11:29:32.946Z,539
2022-10-04T11:30:35.452Z,539.4
2022-10-04T11:31:38.231Z,539.2
2022-10-04T11:32:40.751Z,539.6
2022-10-04T11:33:42.439Z,539.5
2022-10-04T11:34:44.948Z,539.8
2022-10-04T11:35:47.175Z,539.5
2022-10-04T11:36:50.671Z,539.7
2022-10-04T11:37:52.866Z,539.5
2022-10-04T11:38:54.524Z,539.6
2022-10-04T11:39:56.484Z,539.4
2022-10-04T11:40:59.051Z,539.4
2022-10-04T11:42:01.607Z,539.5
2022-10-04T11:43:04.142Z,539.4
2022-10-04T11:44:06.357Z,539.3
2022-10-04T11:45:08.264Z,539.3
2022-10-04T11:47:16.080Z,539.5
2022-10-04T11:48:18.614Z,540.3
2022-10-04T11:49:20.820Z,539.7
2022-10-04T11:50:23.055Z,540
2022-10-04T11:51:25.378Z,539.2
2022-10-04T11:52:27.593Z,539.7
2022-10-04T11:53:30.069Z,539.7
2022-10-04T11:54:32.597Z,540
2022-10-04T11:55:34.808Z,540.5
2022-10-04T11:56:36.720Z,540.7
2022-10-04T11:57:39.226Z,540.7
2022-10-04T11:58:41.140Z,540.8
2022-10-04T11:59:43.614Z,540.6
2022-10-04T12:00:45.819Z,540.2
2022-10-04T12:01:48.325Z,540.5
2022-10-04T12:02:50.880Z,540.4
2022-10-04T12:03:54.346Z,540.8
2022-10-04T12:04:56.253Z,540.2
2022-10-04T12:05:58.797Z,540.8
2022-10-04T12:07:01.485Z,540.7
2022-10-04T12:08:03.699Z,540.8
2022-10-04T12:09:05.617Z,541
2022-10-04T12:10:08.307Z,541.1
2022-10-04T12:11:10.819Z,541.1
2022-10-04T12:12:13.299Z,541.2
2022-10-04T12:13:15.518Z,541.4
2022-10-04T12:14:17.744Z,541.7
2022-10-04T12:15:19.959Z,541.7
2022-10-04T12:16:22.522Z,541.3
2022-10-04T12:17:25.055Z,542.2
2022-10-04T12:18:27.312Z,541.9
2022-10-04T12:19:29.260Z,542.2
2022-10-04T12:20:31.744Z,542.5
2022-10-04T12:21:33.971Z,542.6
2022-10-04T12:22:36.263Z,542.7
2022-10-04T12:23:38.461Z,543
2022-10-04T12:24:40.952Z,543.5
2022-10-04T12:25:42.919Z,543.3
2022-10-04T12:26:47.553Z,543
2022-10-04T12:27:49.964Z,543.4
2022-10-04T12:28:51.911Z,543.5
2022-10-04T12:29:54.110Z,543.1
2022-10-04T12:30:56.054Z,543.4
2022-10-04T12:31:58.296Z,543.1
2022-10-04T12:33:00.879Z,543.3
2022-10-04T12:34:03.154Z,543.6
2022-10-04T12:35:06.120Z,543.6
2022-10-04T12:36:08.319Z,543.2
2022-10-04T12:37:10.853Z,543.6
2022-10-04T12:38:12.672Z,543.6
2022-10-04T12:39:14.900Z,543.5
2022-10-04T12:40:17.107Z,543.6
2022-10-04T12:41:19.301Z,543.8
2022-10-04T12:42:21.239Z,543.5
2022-10-04T12:43:23.173Z,543.9
2022-10-04T12:44:25.385Z,543.8
2022-10-04T12:45:27.950Z,543.7
2022-10-04T12:46:30.468Z,543.8
2022-10-04T12:47:32.398Z,543.9
2022-10-04T12:48:34.883Z,544
2022-10-04T12:49:37.564Z,543.6
2022-10-04T12:50:39.776Z,543.7
2022-10-04T12:51:42.271Z,543.6
2022-10-04T12:52:44.471Z,544.1
2022-10-04T12:53:46.701Z,544.3
2022-10-04T12:54:49.204Z,544.4
2022-10-04T12:55:51.399Z,544.1
2022-10-04T12:56:53.324Z,544.4
2022-10-04T12:57:55.535Z,544.7
2022-10-04T12:58:57.746Z,544.7
2022-10-04T12:59:59.707Z,544.6
2022-10-04T13:01:04.345Z,544.9
2022-10-04T13:02:06.978Z,544.8
2022-10-04T13:03:09.542Z,544.7
2022-10-04T13:04:10.897Z,544.2
2022-10-04T13:05:13.594Z,544.4
2022-10-04T13:06:16.106Z,544.5
2022-10-04T13:07:18.599Z,544.5
2022-10-04T13:08:20.551Z,544.3
2022-10-04T13:09:23.056Z,544.6
2022-10-04T13:10:27.978Z,544.8
2022-10-04T13:11:30.199Z,544.8
2022-10-04T13:12:32.668Z,545
2022-10-04T13:13:35.158Z,544.9
2022-10-04T13:14:37.353Z,545.1
2022-10-04T13:17:48.980Z,545.5
2022-10-04T13:18:51.180Z,545.3
2022-10-04T13:19:53.663Z,545.2
2022-10-04T13:20:56.198Z,545.4
2022-10-04T13:21:58.678Z,545.6
2022-10-04T13:23:00.896Z,545.4
2022-10-04T13:24:03.398Z,545.4
2022-10-04T13:25:05.893Z,545.6
2022-10-04T13:26:08.390Z,545.6
2022-10-04T13:27:10.587Z,545.5
2022-10-04T13:28:13.152Z,545.9
2022-10-04T13:29:15.666Z,545.9
2022-10-04T13:30:17.948Z,546
2022-10-04T13:31:20.785Z,546
2022-10-04T13:32:23.313Z,545.4
2022-10-04T13:33:25.531Z,545.8
2022-10-04T13:34:27.743Z,546
2022-10-04T13:36:35.351Z,545.7
2022-10-04T13:37:37.819Z,546.3
2022-10-04T13:38:39.761Z,545.6
2022-10-04T13:39:42.263Z,545.6
2022-10-04T13:40:44.493Z,545.8
2022-10-04T13:41:49.204Z,545.5
2022-10-04T13:42:51.388Z,545.8
2022-10-04T13:43:53.631Z,545.7
2022-10-04T13:44:55.821Z,545.7
2022-10-04T13:45:58.597Z,545.2
2022-10-04T13:47:00.865Z,545.2
2022-10-04T13:48:03.083Z,545.4
2022-10-04T13:49:05.290Z,545.1
2022-10-04T13:50:07.502Z,545.2
2022-10-04T13:51:09.713Z,545
2022-10-04T13:52:11.969Z,545.1
2022-10-04T13:53:13.898Z,544.7
2022-10-04T13:54:16.385Z,544.9
2022-10-04T13:55:18.896Z,545
2022-10-04T13:56:20.846Z,544.8